sensor_id;sensor_type;location;lat;lon;timestamp;temperature;humidity
68011;DHT22;54794;48.348;7.878;2024-02-23T00:02:00;10.70;61.90
68011;DHT22;54794;48.348;7.878;2024-02-23T00:04:27;11.10;62.00
68011;DHT22;54794;48.348;7.878;2024-02-23T00:06:54;11.20;62.10
68011;DHT22;54794;48.348;7.878;2024-02-23T00:09:21;11.30;62.20
68011;DHT22;54794;48.348;7.878;2024-02-23T00:11:48;11.00;62.20
68011;DHT22;54794;48.348;7.878;2024-02-23T00:14:16;11.60;62.50
68011;DHT22;54794;48.348;7.878;2024-02-23T00:16:47;11.10;62.20
68011;DHT22;54794;48.348;7.878;2024-02-23T00:19:14;11.10;62.20
68011;DHT22;54794;48.348;7.878;2024-02-23T00:21:44;11.00;62.20
68011;DHT22;54794;48.348;7.878;2024-02-23T00:24:14;11.30;62.40
68011;DHT22;54794;48.348;7.878;2024-02-23T00:26:43;11.10;62.30
68011;DHT22;54794;48.348;7.878;2024-02-23T00:29:13;11.40;62.50
68011;DHT22;54794;48.348;7.878;2024-02-23T00:31:40;11.20;62.30
68011;DHT22;54794;48.348;7.878;2024-02-23T00:34:12;11.10;62.30
68011;DHT22;54794;48.348;7.878;2024-02-23T00:36:42;10.80;62.10
68011;DHT22;54794;48.348;7.878;2024-02-23T00:39:11;11.30;62.40
68011;DHT22;54794;48.348;7.878;2024-02-23T00:41:40;11.40;62.50
68011;DHT22;54794;48.348;7.878;2024-02-23T00:44:07;11.30;62.30
68011;DHT22;54794;48.348;7.878;2024-02-23T00:46:34;10.90;62.10
68011;DHT22;54794;48.348;7.878;2024-02-23T00:49:01;10.50;61.80
68011;DHT22;54794;48.348;7.878;2024-02-23T00:51:31;11.50;62.30
68011;DHT22;54794;48.348;7.878;2024-02-23T00:53:58;11.00;62.00
68011;DHT22;54794;48.348;7.878;2024-02-23T00:56:27;10.90;62.00
68011;DHT22;54794;48.348;7.878;2024-02-23T00:59:06;11.40;62.20
68011;DHT22;54794;48.348;7.878;2024-02-23T01:01:33;10.70;61.70
68011;DHT22;54794;48.348;7.878;2024-02-23T01:04:00;10.70;61.70
68011;DHT22;54794;48.348;7.878;2024-02-23T01:06:27;10.90;61.80
68011;DHT22;54794;48.348;7.878;2024-02-23T01:08:55;10.90;61.70
68011;DHT22;54794;48.348;7.878;2024-02-23T01:11:24;10.90;61.70
68011;DHT22;54794;48.348;7.878;2024-02-23T01:13:51;10.70;61.60
68011;DHT22;54794;48.348;7.878;2024-02-23T01:16:18;10.80;61.60
68011;DHT22;54794;48.348;7.878;2024-02-23T01:18:45;10.90;61.60
68011;DHT22;54794;48.348;7.878;2024-02-23T01:21:12;11.30;61.90
68011;DHT22;54794;48.348;7.878;2024-02-23T01:23:40;11.10;61.70
68011;DHT22;54794;48.348;7.878;2024-02-23T01:26:07;11.20;61.70
68011;DHT22;54794;48.348;7.878;2024-02-23T01:28:34;11.30;61.80
68011;DHT22;54794;48.348;7.878;2024-02-23T01:31:01;10.70;61.20
68011;DHT22;54794;48.348;7.878;2024-02-23T01:33:28;11.20;61.70
68011;DHT22;54794;48.348;7.878;2024-02-23T01:35:55;10.80;61.20
68011;DHT22;54794;48.348;7.878;2024-02-23T01:38:23;10.70;61.10
68011;DHT22;54794;48.348;7.878;2024-02-23T01:40:54;11.10;61.50
68011;DHT22;54794;48.348;7.878;2024-02-23T01:43:21;10.80;61.40
68011;DHT22;54794;48.348;7.878;2024-02-23T01:45:48;10.70;61.40
68011;DHT22;54794;48.348;7.878;2024-02-23T01:48:15;10.70;61.50
68011;DHT22;54794;48.348;7.878;2024-02-23T01:50:43;10.60;61.30
68011;DHT22;54794;48.348;7.878;2024-02-23T01:53:12;10.30;61.20
68011;DHT22;54794;48.348;7.878;2024-02-23T01:55:42;10.60;61.40
68011;DHT22;54794;48.348;7.878;2024-02-23T01:58:12;10.60;61.40
68011;DHT22;54794;48.348;7.878;2024-02-23T02:00:39;10.90;61.70
68011;DHT22;54794;48.348;7.878;2024-02-23T02:03:10;10.30;61.00
68011;DHT22;54794;48.348;7.878;2024-02-23T02:05:39;10.30;61.00
68011;DHT22;54794;48.348;7.878;2024-02-23T02:08:06;10.40;61.20
68011;DHT22;54794;48.348;7.878;2024-02-23T02:10:33;10.50;61.30
68011;DHT22;54794;48.348;7.878;2024-02-23T02:13:04;11.00;61.70
68011;DHT22;54794;48.348;7.878;2024-02-23T02:15:32;10.50;61.60
68011;DHT22;54794;48.348;7.878;2024-02-23T02:18:01;10.80;61.80
68011;DHT22;54794;48.348;7.878;2024-02-23T02:20:28;10.40;61.70
68011;DHT22;54794;48.348;7.878;2024-02-23T02:23:02;10.40;61.80
68011;DHT22;54794;48.348;7.878;2024-02-23T02:25:29;10.50;61.90
68011;DHT22;54794;48.348;7.878;2024-02-23T02:27:56;10.80;62.20
68011;DHT22;54794;48.348;7.878;2024-02-23T02:30:23;10.50;62.20
68011;DHT22;54794;48.348;7.878;2024-02-23T02:32:50;10.60;62.30
68011;DHT22;54794;48.348;7.878;2024-02-23T02:35:17;10.00;62.00
68011;DHT22;54794;48.348;7.878;2024-02-23T02:37:44;10.20;62.10
68011;DHT22;54794;48.348;7.878;2024-02-23T02:40:11;10.20;62.20
68011;DHT22;54794;48.348;7.878;2024-02-23T02:42:38;10.20;62.20
68011;DHT22;54794;48.348;7.878;2024-02-23T02:45:05;10.80;62.60
68011;DHT22;54794;48.348;7.878;2024-02-23T02:47:32;10.20;62.30
68011;DHT22;54794;48.348;7.878;2024-02-23T02:49:59;10.10;62.30
68011;DHT22;54794;48.348;7.878;2024-02-23T02:52:26;10.20;62.40
68011;DHT22;54794;48.348;7.878;2024-02-23T02:54:53;10.50;62.50
68011;DHT22;54794;48.348;7.878;2024-02-23T02:57:20;10.70;62.60
68011;DHT22;54794;48.348;7.878;2024-02-23T02:59:47;10.10;62.20
68011;DHT22;54794;48.348;7.878;2024-02-23T03:02:16;10.20;62.20
68011;DHT22;54794;48.348;7.878;2024-02-23T03:04:50;9.90;62.10
68011;DHT22;54794;48.348;7.878;2024-02-23T03:07:17;10.10;62.20
68011;DHT22;54794;48.348;7.878;2024-02-23T03:09:46;10.10;62.10
68011;DHT22;54794;48.348;7.878;2024-02-23T03:12:13;11.00;62.70
68011;DHT22;54794;48.348;7.878;2024-02-23T03:14:40;10.00;62.10
68011;DHT22;54794;48.348;7.878;2024-02-23T03:17:08;10.10;62.20
68011;DHT22;54794;48.348;7.878;2024-02-23T03:19:38;9.90;62.10
68011;DHT22;54794;48.348;7.878;2024-02-23T03:22:05;10.30;62.30
68011;DHT22;54794;48.348;7.878;2024-02-23T03:24:32;10.00;62.20
68011;DHT22;54794;48.348;7.878;2024-02-23T03:26:59;10.20;62.20
68011;DHT22;54794;48.348;7.878;2024-02-23T03:29:27;10.40;62.30
68011;DHT22;54794;48.348;7.878;2024-02-23T03:31:56;9.80;61.90
68011;DHT22;54794;48.348;7.878;2024-02-23T03:34:23;10.00;62.10
68011;DHT22;54794;48.348;7.878;2024-02-23T03:36:52;9.90;62.00
68011;DHT22;54794;48.348;7.878;2024-02-23T03:39:19;9.90;62.10
68011;DHT22;54794;48.348;7.878;2024-02-23T03:41:46;9.90;62.20
68011;DHT22;54794;48.348;7.878;2024-02-23T03:44:13;9.80;62.20
68011;DHT22;54794;48.348;7.878;2024-02-23T03:46:40;10.10;62.40
68011;DHT22;54794;48.348;7.878;2024-02-23T03:49:07;9.60;62.10
68011;DHT22;54794;48.348;7.878;2024-02-23T03:51:34;9.80;62.30
68011;DHT22;54794;48.348;7.878;2024-02-23T03:54:06;9.90;62.30
68011;DHT22;54794;48.348;7.878;2024-02-23T03:56:42;9.80;62.30
68011;DHT22;54794;48.348;7.878;2024-02-23T03:59:09;10.00;62.40
68011;DHT22;54794;48.348;7.878;2024-02-23T04:01:37;9.90;62.40
68011;DHT22;54794;48.348;7.878;2024-02-23T04:04:06;9.80;62.40
68011;DHT22;54794;48.348;7.878;2024-02-23T04:06:33;9.90;62.30
68011;DHT22;54794;48.348;7.878;2024-02-23T04:09:02;10.00;62.40
68011;DHT22;54794;48.348;7.878;2024-02-23T04:11:32;10.00;62.50
68011;DHT22;54794;48.348;7.878;2024-02-23T04:14:00;9.60;62.30
68011;DHT22;54794;48.348;7.878;2024-02-23T04:16:27;9.40;62.30
68011;DHT22;54794;48.348;7.878;2024-02-23T04:18:54;9.50;62.40
68011;DHT22;54794;48.348;7.878;2024-02-23T04:21:23;9.70;62.50
68011;DHT22;54794;48.348;7.878;2024-02-23T04:23:50;9.70;63.10
68011;DHT22;54794;48.348;7.878;2024-02-23T04:26:22;9.70;62.60
68011;DHT22;54794;48.348;7.878;2024-02-23T04:28:49;9.90;62.60
68011;DHT22;54794;48.348;7.878;2024-02-23T04:31:16;9.60;62.50
68011;DHT22;54794;48.348;7.878;2024-02-23T04:33:43;9.50;62.40
68011;DHT22;54794;48.348;7.878;2024-02-23T04:36:10;8.90;62.60
68011;DHT22;54794;48.348;7.878;2024-02-23T04:38:37;10.10;62.80
68011;DHT22;54794;48.348;7.878;2024-02-23T04:41:04;9.60;62.50
68011;DHT22;54794;48.348;7.878;2024-02-23T04:43:32;9.60;62.50
68011;DHT22;54794;48.348;7.878;2024-02-23T04:45:59;9.70;62.60
68011;DHT22;54794;48.348;7.878;2024-02-23T04:48:28;9.50;62.50
68011;DHT22;54794;48.348;7.878;2024-02-23T04:50:57;9.40;62.50
68011;DHT22;54794;48.348;7.878;2024-02-23T04:53:24;9.60;62.60
68011;DHT22;54794;48.348;7.878;2024-02-23T04:55:51;9.60;62.60
68011;DHT22;54794;48.348;7.878;2024-02-23T04:58:18;9.40;62.60
68011;DHT22;54794;48.348;7.878;2024-02-23T05:00:47;9.50;62.70
68011;DHT22;54794;48.348;7.878;2024-02-23T05:03:14;9.50;62.70
68011;DHT22;54794;48.348;7.878;2024-02-23T05:05:42;10.20;63.20
68011;DHT22;54794;48.348;7.878;2024-02-23T05:08:09;9.50;62.70
68011;DHT22;54794;48.348;7.878;2024-02-23T05:10:36;9.60;62.80
68011;DHT22;54794;48.348;7.878;2024-02-23T05:13:03;9.50;62.70
68011;DHT22;54794;48.348;7.878;2024-02-23T05:15:30;9.50;62.70
68011;DHT22;54794;48.348;7.878;2024-02-23T05:17:57;9.70;62.90
68011;DHT22;54794;48.348;7.878;2024-02-23T05:20:24;9.50;62.80
68011;DHT22;54794;48.348;7.878;2024-02-23T05:22:51;9.70;62.90
68011;DHT22;54794;48.348;7.878;2024-02-23T05:25:18;9.50;62.70
68011;DHT22;54794;48.348;7.878;2024-02-23T05:27:44;9.20;62.50
68011;DHT22;54794;48.348;7.878;2024-02-23T05:30:12;9.50;62.70
68011;DHT22;54794;48.348;7.878;2024-02-23T05:32:39;9.60;62.70
68011;DHT22;54794;48.348;7.878;2024-02-23T05:35:09;9.60;62.60
68011;DHT22;54794;48.348;7.878;2024-02-23T05:37:36;9.50;62.50
68011;DHT22;54794;48.348;7.878;2024-02-23T05:40:06;9.60;62.40
68011;DHT22;54794;48.348;7.878;2024-02-23T05:42:37;9.30;62.20
68011;DHT22;54794;48.348;7.878;2024-02-23T05:45:07;9.70;62.40
68011;DHT22;54794;48.348;7.878;2024-02-23T05:47:37;9.50;62.30
68011;DHT22;54794;48.348;7.878;2024-02-23T05:50:05;9.90;62.50
68011;DHT22;54794;48.348;7.878;2024-02-23T05:52:33;9.50;62.30
68011;DHT22;54794;48.348;7.878;2024-02-23T05:55:00;9.50;62.30
68011;DHT22;54794;48.348;7.878;2024-02-23T05:57:30;9.50;62.20
68011;DHT22;54794;48.348;7.878;2024-02-23T06:00:00;9.50;62.20
68011;DHT22;54794;48.348;7.878;2024-02-23T06:02:47;9.40;62.10
68011;DHT22;54794;48.348;7.878;2024-02-23T06:06:01;10.00;62.80
68011;DHT22;54794;48.348;7.878;2024-02-23T06:08:43;9.40;62.00
68011;DHT22;54794;48.348;7.878;2024-02-23T06:11:10;8.60;62.00
68011;DHT22;54794;48.348;7.878;2024-02-23T06:13:40;9.50;61.80
68011;DHT22;54794;48.348;7.878;2024-02-23T06:16:12;9.80;62.10
68011;DHT22;54794;48.348;7.878;2024-02-23T06:18:40;9.30;61.80
68011;DHT22;54794;48.348;7.878;2024-02-23T06:21:14;8.80;61.50
68011;DHT22;54794;48.348;7.878;2024-02-23T06:23:42;9.40;61.70
68011;DHT22;54794;48.348;7.878;2024-02-23T06:26:09;9.40;61.70
68011;DHT22;54794;48.348;7.878;2024-02-23T06:28:36;9.50;61.80
68011;DHT22;54794;48.348;7.878;2024-02-23T06:31:05;9.30;61.80
68011;DHT22;54794;48.348;7.878;2024-02-23T06:33:33;9.40;61.70
68011;DHT22;54794;48.348;7.878;2024-02-23T06:36:02;9.30;61.60
68011;DHT22;54794;48.348;7.878;2024-02-23T06:38:30;9.00;61.40
68011;DHT22;54794;48.348;7.878;2024-02-23T06:40:58;9.20;61.50
68011;DHT22;54794;48.348;7.878;2024-02-23T06:43:27;9.20;61.50
68011;DHT22;54794;48.348;7.878;2024-02-23T06:45:54;9.20;61.50
68011;DHT22;54794;48.348;7.878;2024-02-23T06:48:21;9.20;61.60
68011;DHT22;54794;48.348;7.878;2024-02-23T06:50:48;9.50;61.80
68011;DHT22;54794;48.348;7.878;2024-02-23T06:53:14;9.00;61.50
68011;DHT22;54794;48.348;7.878;2024-02-23T06:55:41;9.00;61.50
68011;DHT22;54794;48.348;7.878;2024-02-23T06:58:08;9.10;61.60
68011;DHT22;54794;48.348;7.878;2024-02-23T07:00:37;9.10;61.70
68011;DHT22;54794;48.348;7.878;2024-02-23T07:03:05;9.00;61.60
68011;DHT22;54794;48.348;7.878;2024-02-23T07:05:34;9.10;61.80
68011;DHT22;54794;48.348;7.878;2024-02-23T07:08:05;8.80;61.70
68011;DHT22;54794;48.348;7.878;2024-02-23T07:10:32;9.00;61.80
68011;DHT22;54794;48.348;7.878;2024-02-23T07:13:09;9.00;61.80
68011;DHT22;54794;48.348;7.878;2024-02-23T07:15:36;9.00;61.90
68011;DHT22;54794;48.348;7.878;2024-02-23T07:18:05;9.50;62.20
68011;DHT22;54794;48.348;7.878;2024-02-23T07:20:36;9.10;62.10
68011;DHT22;54794;48.348;7.878;2024-02-23T07:23:04;9.10;62.10
68011;DHT22;54794;48.348;7.878;2024-02-23T07:25:34;9.20;62.30
68011;DHT22;54794;48.348;7.878;2024-02-23T07:28:01;9.30;62.30
68011;DHT22;54794;48.348;7.878;2024-02-23T07:30:27;8.50;61.80
68011;DHT22;54794;48.348;7.878;2024-02-23T07:32:54;9.20;62.20
68011;DHT22;54794;48.348;7.878;2024-02-23T07:35:21;9.20;62.20
68011;DHT22;54794;48.348;7.878;2024-02-23T07:37:48;9.30;62.10
68011;DHT22;54794;48.348;7.878;2024-02-23T07:40:15;9.70;62.30
68011;DHT22;54794;48.348;7.878;2024-02-23T07:42:46;9.30;62.10
68011;DHT22;54794;48.348;7.878;2024-02-23T07:45:13;9.40;62.20
68011;DHT22;54794;48.348;7.878;2024-02-23T07:47:40;9.30;62.10
68011;DHT22;54794;48.348;7.878;2024-02-23T07:50:07;9.50;62.70
68011;DHT22;54794;48.348;7.878;2024-02-23T07:52:35;9.50;62.10
68011;DHT22;54794;48.348;7.878;2024-02-23T07:55:03;9.90;62.20
68011;DHT22;54794;48.348;7.878;2024-02-23T07:57:32;9.60;62.00
68011;DHT22;54794;48.348;7.878;2024-02-23T07:59:59;9.60;61.80
68011;DHT22;54794;48.348;7.878;2024-02-23T08:02:27;9.60;61.90
68011;DHT22;54794;48.348;7.878;2024-02-23T08:04:53;9.40;61.50
68011;DHT22;54794;48.348;7.878;2024-02-23T08:07:21;9.70;61.60
68011;DHT22;54794;48.348;7.878;2024-02-23T08:09:49;9.70;61.70
68011;DHT22;54794;48.348;7.878;2024-02-23T08:12:16;9.80;61.90
68011;DHT22;54794;48.348;7.878;2024-02-23T08:14:43;9.80;61.90
68011;DHT22;54794;48.348;7.878;2024-02-23T08:17:12;10.10;62.10
68011;DHT22;54794;48.348;7.878;2024-02-23T08:19:39;9.70;61.90
68011;DHT22;54794;48.348;7.878;2024-02-23T08:22:06;9.90;61.80
68011;DHT22;54794;48.348;7.878;2024-02-23T08:24:33;10.00;61.80
68011;DHT22;54794;48.348;7.878;2024-02-23T08:27:00;10.00;61.60
68011;DHT22;54794;48.348;7.878;2024-02-23T08:29:30;10.40;61.80
68011;DHT22;54794;48.348;7.878;2024-02-23T08:31:57;10.20;61.60
68011;DHT22;54794;48.348;7.878;2024-02-23T08:34:26;10.10;61.30
68011;DHT22;54794;48.348;7.878;2024-02-23T08:36:56;10.40;61.40
68011;DHT22;54794;48.348;7.878;2024-02-23T08:39:27;10.50;61.60
68011;DHT22;54794;48.348;7.878;2024-02-23T08:41:56;10.30;61.60
68011;DHT22;54794;48.348;7.878;2024-02-23T08:44:24;10.40;61.60
68011;DHT22;54794;48.348;7.878;2024-02-23T08:46:54;10.10;61.50
68011;DHT22;54794;48.348;7.878;2024-02-23T08:49:21;10.30;61.30
68011;DHT22;54794;48.348;7.878;2024-02-23T08:51:48;10.60;61.50
68011;DHT22;54794;48.348;7.878;2024-02-23T08:54:15;10.70;61.20
68011;DHT22;54794;48.348;7.878;2024-02-23T08:56:45;11.30;61.10
68011;DHT22;54794;48.348;7.878;2024-02-23T08:59:12;10.90;60.80
68011;DHT22;54794;48.348;7.878;2024-02-23T09:01:39;10.70;60.80
68011;DHT22;54794;48.348;7.878;2024-02-23T09:04:06;10.70;61.00
68011;DHT22;54794;48.348;7.878;2024-02-23T09:06:33;10.80;61.00
68011;DHT22;54794;48.348;7.878;2024-02-23T09:09:08;10.80;60.90
68011;DHT22;54794;48.348;7.878;2024-02-23T09:11:36;11.30;60.90
68011;DHT22;54794;48.348;7.878;2024-02-23T09:14:05;11.10;60.60
68011;DHT22;54794;48.348;7.878;2024-02-23T09:16:35;11.40;61.00
68011;DHT22;54794;48.348;7.878;2024-02-23T09:19:03;11.30;60.90
68011;DHT22;54794;48.348;7.878;2024-02-23T09:21:33;11.00;60.90
68011;DHT22;54794;48.348;7.878;2024-02-23T09:24:00;11.90;61.50
68011;DHT22;54794;48.348;7.878;2024-02-23T09:26:31;11.20;61.10
68011;DHT22;54794;48.348;7.878;2024-02-23T09:28:58;11.30;60.40
68011;DHT22;54794;48.348;7.878;2024-02-23T09:31:25;11.40;60.50
68011;DHT22;54794;48.348;7.878;2024-02-23T09:33:55;11.60;60.10
68011;DHT22;54794;48.348;7.878;2024-02-23T09:36:23;11.90;60.30
68011;DHT22;54794;48.348;7.878;2024-02-23T09:38:50;11.30;60.10
68011;DHT22;54794;48.348;7.878;2024-02-23T09:41:23;11.60;60.30
68011;DHT22;54794;48.348;7.878;2024-02-23T09:44:01;11.40;60.00
68011;DHT22;54794;48.348;7.878;2024-02-23T09:46:30;12.30;60.30
68011;DHT22;54794;48.348;7.878;2024-02-23T09:49:17;11.90;59.90
68011;DHT22;54794;48.348;7.878;2024-02-23T09:51:48;11.70;59.60
68011;DHT22;54794;48.348;7.878;2024-02-23T09:54:18;12.10;59.20
68011;DHT22;54794;48.348;7.878;2024-02-23T09:56:46;11.80;58.90
68011;DHT22;54794;48.348;7.878;2024-02-23T09:59:20;12.20;59.00
68011;DHT22;54794;48.348;7.878;2024-02-23T10:01:55;11.90;59.20
68011;DHT22;54794;48.348;7.878;2024-02-23T10:04:44;11.70;59.20
68011;DHT22;54794;48.348;7.878;2024-02-23T10:07:27;11.50;58.90
68011;DHT22;54794;48.348;7.878;2024-02-23T10:09:58;11.80;59.30
68011;DHT22;54794;48.348;7.878;2024-02-23T10:12:30;12.30;59.40
68011;DHT22;54794;48.348;7.878;2024-02-23T10:15:05;12.10;59.50
68011;DHT22;54794;48.348;7.878;2024-02-23T10:17:41;11.70;59.30
68011;DHT22;54794;48.348;7.878;2024-02-23T10:20:18;11.70;59.60
68011;DHT22;54794;48.348;7.878;2024-02-23T10:22:45;11.90;59.80
68011;DHT22;54794;48.348;7.878;2024-02-23T10:25:12;11.70;59.10
68011;DHT22;54794;48.348;7.878;2024-02-23T10:27:41;11.90;58.50
68011;DHT22;54794;48.348;7.878;2024-02-23T10:30:09;12.30;58.80
68011;DHT22;54794;48.348;7.878;2024-02-23T10:32:43;12.00;58.70
68011;DHT22;54794;48.348;7.878;2024-02-23T10:35:16;12.20;58.50
68011;DHT22;54794;48.348;7.878;2024-02-23T10:37:44;12.10;58.70
68011;DHT22;54794;48.348;7.878;2024-02-23T10:40:16;12.20;59.10
68011;DHT22;54794;48.348;7.878;2024-02-23T10:42:56;12.70;58.60
68011;DHT22;54794;48.348;7.878;2024-02-23T10:45:35;11.60;58.30
68011;DHT22;54794;48.348;7.878;2024-02-23T10:48:10;12.30;58.70
68011;DHT22;54794;48.348;7.878;2024-02-23T10:50:41;12.30;57.40
68011;DHT22;54794;48.348;7.878;2024-02-23T10:53:18;12.70;57.00
68011;DHT22;54794;48.348;7.878;2024-02-23T10:55:56;12.40;57.10
68011;DHT22;54794;48.348;7.878;2024-02-23T11:12:04;12.50;55.80
68011;DHT22;54794;48.348;7.878;2024-02-23T11:14:38;12.40;56.80
68011;DHT22;54794;48.348;7.878;2024-02-23T11:17:18;12.60;57.60
68011;DHT22;54794;48.348;7.878;2024-02-23T11:20:06;12.20;56.70
68011;DHT22;54794;48.348;7.878;2024-02-23T11:22:38;12.50;56.50
68011;DHT22;54794;48.348;7.878;2024-02-23T11:28:51;12.50;56.00
68011;DHT22;54794;48.348;7.878;2024-02-23T11:31:25;12.50;56.30
68011;DHT22;54794;48.348;7.878;2024-02-23T11:33:58;12.40;56.40
68011;DHT22;54794;48.348;7.878;2024-02-23T11:36:30;12.40;56.50
68011;DHT22;54794;48.348;7.878;2024-02-23T11:39:00;12.80;57.10
68011;DHT22;54794;48.348;7.878;2024-02-23T11:41:28;12.60;57.10
68011;DHT22;54794;48.348;7.878;2024-02-23T11:43:56;12.30;57.10
68011;DHT22;54794;48.348;7.878;2024-02-23T11:46:33;12.30;57.30
68011;DHT22;54794;48.348;7.878;2024-02-23T11:49:00;12.80;56.30
68011;DHT22;54794;48.348;7.878;2024-02-23T11:51:27;12.60;57.10
68011;DHT22;54794;48.348;7.878;2024-02-23T11:53:56;12.40;57.00
68011;DHT22;54794;48.348;7.878;2024-02-23T11:56:25;12.50;56.70
68011;DHT22;54794;48.348;7.878;2024-02-23T11:58:56;12.30;57.00
68011;DHT22;54794;48.348;7.878;2024-02-23T12:01:24;12.60;57.10
68011;DHT22;54794;48.348;7.878;2024-02-23T12:03:51;12.40;57.00
68011;DHT22;54794;48.348;7.878;2024-02-23T12:06:18;12.70;57.20
68011;DHT22;54794;48.348;7.878;2024-02-23T12:08:45;12.70;57.10
68011;DHT22;54794;48.348;7.878;2024-02-23T12:11:14;12.70;57.10
68011;DHT22;54794;48.348;7.878;2024-02-23T12:13:41;13.20;57.10
68011;DHT22;54794;48.348;7.878;2024-02-23T12:16:09;12.60;56.70
68011;DHT22;54794;48.348;7.878;2024-02-23T12:18:36;12.60;56.70
68011;DHT22;54794;48.348;7.878;2024-02-23T12:21:08;12.70;56.90
68011;DHT22;54794;48.348;7.878;2024-02-23T12:23:43;12.60;56.40
68011;DHT22;54794;48.348;7.878;2024-02-23T12:26:16;12.70;56.20
68011;DHT22;54794;48.348;7.878;2024-02-23T12:28:44;12.90;56.60
68011;DHT22;54794;48.348;7.878;2024-02-23T12:31:12;13.10;56.70
68011;DHT22;54794;48.348;7.878;2024-02-23T12:33:40;12.80;56.80
68011;DHT22;54794;48.348;7.878;2024-02-23T12:36:10;12.20;56.70
68011;DHT22;54794;48.348;7.878;2024-02-23T12:38:37;12.20;57.00
68011;DHT22;54794;48.348;7.878;2024-02-23T12:41:04;12.20;57.00
68011;DHT22;54794;48.348;7.878;2024-02-23T12:43:32;12.70;57.60
68011;DHT22;54794;48.348;7.878;2024-02-23T12:45:59;12.30;58.20
68011;DHT22;54794;48.348;7.878;2024-02-23T12:48:27;12.30;58.50
68011;DHT22;54794;48.348;7.878;2024-02-23T12:50:54;12.60;58.70
68011;DHT22;54794;48.348;7.878;2024-02-23T12:53:32;12.50;58.60
68011;DHT22;54794;48.348;7.878;2024-02-23T12:56:07;12.50;59.00
68011;DHT22;54794;48.348;7.878;2024-02-23T12:58:39;12.60;59.10
68011;DHT22;54794;48.348;7.878;2024-02-23T13:01:11;13.00;59.10
68011;DHT22;54794;48.348;7.878;2024-02-23T13:03:40;13.30;59.20
68011;DHT22;54794;48.348;7.878;2024-02-23T13:06:10;13.50;58.70
68011;DHT22;54794;48.348;7.878;2024-02-23T13:08:39;12.70;58.10
68011;DHT22;54794;48.348;7.878;2024-02-23T13:11:30;13.70;58.90
68011;DHT22;54794;48.348;7.878;2024-02-23T13:14:11;13.30;57.90
68011;DHT22;54794;48.348;7.878;2024-02-23T13:16:43;13.70;58.60
68011;DHT22;54794;48.348;7.878;2024-02-23T13:19:13;13.60;58.20
68011;DHT22;54794;48.348;7.878;2024-02-23T13:21:50;13.80;58.40
68011;DHT22;54794;48.348;7.878;2024-02-23T13:24:20;13.90;57.80
68011;DHT22;54794;48.348;7.878;2024-02-23T13:26:51;14.10;57.60
68011;DHT22;54794;48.348;7.878;2024-02-23T13:29:18;14.50;56.50
68011;DHT22;54794;48.348;7.878;2024-02-23T13:31:54;14.10;56.20
68011;DHT22;54794;48.348;7.878;2024-02-23T13:34:22;14.10;55.70
68011;DHT22;54794;48.348;7.878;2024-02-23T13:37:12;14.40;56.10
68011;DHT22;54794;48.348;7.878;2024-02-23T13:40:01;14.10;55.20
68011;DHT22;54794;48.348;7.878;2024-02-23T13:42:41;14.50;55.50
68011;DHT22;54794;48.348;7.878;2024-02-23T13:45:10;14.60;55.90
68011;DHT22;54794;48.348;7.878;2024-02-23T13:48:02;14.40;55.70
68011;DHT22;54794;48.348;7.878;2024-02-23T13:50:40;14.60;54.80
68011;DHT22;54794;48.348;7.878;2024-02-23T13:53:22;14.60;55.60
68011;DHT22;54794;48.348;7.878;2024-02-23T13:56:12;15.30;56.30
68011;DHT22;54794;48.348;7.878;2024-02-23T13:58:59;14.80;54.90
68011;DHT22;54794;48.348;7.878;2024-02-23T14:01:32;15.20;55.80
68011;DHT22;54794;48.348;7.878;2024-02-23T14:04:37;15.50;54.30
68011;DHT22;54794;48.348;7.878;2024-02-23T14:07:31;15.40;54.50
68011;DHT22;54794;48.348;7.878;2024-02-23T14:10:25;15.40;54.20
68011;DHT22;54794;48.348;7.878;2024-02-23T14:13:21;15.40;53.30
68011;DHT22;54794;48.348;7.878;2024-02-23T14:16:17;15.20;53.30
68011;DHT22;54794;48.348;7.878;2024-02-23T14:18:59;14.70;53.20
68011;DHT22;54794;48.348;7.878;2024-02-23T14:21:35;14.70;52.70
68011;DHT22;54794;48.348;7.878;2024-02-23T14:24:35;15.20;53.50
68011;DHT22;54794;48.348;7.878;2024-02-23T14:27:07;14.60;53.20
68011;DHT22;54794;48.348;7.878;2024-02-23T14:30:12;15.00;54.00
68011;DHT22;54794;48.348;7.878;2024-02-23T14:33:01;14.50;53.80
68011;DHT22;54794;48.348;7.878;2024-02-23T14:36:09;14.60;53.40
68011;DHT22;54794;48.348;7.878;2024-02-23T14:39:02;14.50;53.10
68011;DHT22;54794;48.348;7.878;2024-02-23T14:41:59;14.50;53.80
68011;DHT22;54794;48.348;7.878;2024-02-23T14:45:12;14.40;53.40
68011;DHT22;54794;48.348;7.878;2024-02-23T14:48:15;15.10;53.10
68011;DHT22;54794;48.348;7.878;2024-02-23T14:50:56;15.10;53.70
68011;DHT22;54794;48.348;7.878;2024-02-23T14:53:49;14.60;53.40
68011;DHT22;54794;48.348;7.878;2024-02-23T14:56:40;13.70;53.00
68011;DHT22;54794;48.348;7.878;2024-02-23T14:59:48;14.80;53.80
68011;DHT22;54794;48.348;7.878;2024-02-23T15:06:14;15.00;53.40
68011;DHT22;54794;48.348;7.878;2024-02-23T15:09:08;15.10;53.50
68011;DHT22;54794;48.348;7.878;2024-02-23T15:12:03;15.30;53.10
68011;DHT22;54794;48.348;7.878;2024-02-23T15:18:34;15.30;52.10
68011;DHT22;54794;48.348;7.878;2024-02-23T15:21:55;15.80;52.20
68011;DHT22;54794;48.348;7.878;2024-02-23T15:25:28;15.20;51.20
68011;DHT22;54794;48.348;7.878;2024-02-23T15:28:22;15.40;51.60
68011;DHT22;54794;48.348;7.878;2024-02-23T15:31:00;15.70;52.10
68011;DHT22;54794;48.348;7.878;2024-02-23T15:33:41;15.50;52.40
68011;DHT22;54794;48.348;7.878;2024-02-23T15:36:32;15.10;52.30
68011;DHT22;54794;48.348;7.878;2024-02-23T15:39:43;15.00;50.80
68011;DHT22;54794;48.348;7.878;2024-02-23T15:42:10;15.10;51.80
68011;DHT22;54794;48.348;7.878;2024-02-23T15:44:52;15.50;52.30
68011;DHT22;54794;48.348;7.878;2024-02-23T15:47:39;14.90;51.40
68011;DHT22;54794;48.348;7.878;2024-02-23T15:50:12;14.90;51.00
68011;DHT22;54794;48.348;7.878;2024-02-23T15:53:12;14.70;51.50
68011;DHT22;54794;48.348;7.878;2024-02-23T15:55:48;14.80;51.70
68011;DHT22;54794;48.348;7.878;2024-02-23T15:58:25;15.00;51.70
68011;DHT22;54794;48.348;7.878;2024-02-23T16:01:04;14.80;51.70
68011;DHT22;54794;48.348;7.878;2024-02-23T16:03:33;14.40;52.00
68011;DHT22;54794;48.348;7.878;2024-02-23T16:06:02;14.40;50.90
68011;DHT22;54794;48.348;7.878;2024-02-23T16:08:58;14.60;51.60
68011;DHT22;54794;48.348;7.878;2024-02-23T16:11:26;14.40;50.90
68011;DHT22;54794;48.348;7.878;2024-02-23T16:14:02;14.40;51.90
68011;DHT22;54794;48.348;7.878;2024-02-23T16:16:41;14.30;52.10
68011;DHT22;54794;48.348;7.878;2024-02-23T16:19:08;14.60;52.10
68011;DHT22;54794;48.348;7.878;2024-02-23T16:21:40;14.50;52.20
68011;DHT22;54794;48.348;7.878;2024-02-23T16:24:18;13.30;50.70
68011;DHT22;54794;48.348;7.878;2024-02-23T16:26:56;14.20;51.60
68011;DHT22;54794;48.348;7.878;2024-02-23T16:29:26;13.60;50.90
68011;DHT22;54794;48.348;7.878;2024-02-23T16:31:53;14.10;51.30